CST,Max TemperatureF,Mean TemperatureF,Min TemperatureF,Max Dew PointF,MeanDew PointF,Min DewpointF,Max Humidity, Mean Humidity, Min Humidity, Max Sea Level PressureIn, Mean Sea Level PressureIn, Min Sea Level PressureIn, Max VisibilityMiles, Mean VisibilityMiles, Min VisibilityMiles, Max Wind SpeedMPH, Mean Wind SpeedMPH, Max Gust SpeedMPH,PrecipitationIn, CloudCover, Events, WindDirDegrees
2012-12-1,63,48,33,39,33,28,92,64,36,29.91,29.82,29.74,10,10,10,17,8,22,0.00,0,,260
2012-12-2,68,48,28,36,31,27,92,58,24,29.96,29.76,29.50,10,10,10,36,14,45,0.00,0,,209
2012-12-3,55,41,27,37,25,14,65,43,20,30.15,29.87,29.49,10,10,10,33,15,44,0.00,1,,289
2012-12-4,55,39,23,26,21,17,81,53,24,30.34,30.24,30.14,10,10,10,14,8,17,0.00,0,,215
2012-12-5,67,48,28,36,27,19,78,49,20,30.12,29.87,29.72,10,10,10,24,9,30,0.00,2,,228
2012-12-6,56,45,34,33,19,13,59,45,30,30.08,30.00,29.80,10,10,6,26,10,35,T,8,,345
2012-12-7,42,29,16,25,22,14,91,69,47,30.05,29.95,29.87,10,10,10,24,9,31,0.00,6,,284
2012-12-8,39,28,16,32,24,15,92,73,54,30.01,29.80,29.62,10,8,1,24,9,35,0.03,6,Snow,248
2012-12-9,22,9,-5,18,3,-9,87,77,66,30.43,30.16,29.84,10,5,1,36,19,48,T,7,Snow,316
2012-12-10,33,14,-6,22,9,-10,84,67,50,30.30,30.01,29.79,10,10,10,16,7,21,0.00,3,,282
2012-12-11,42,29,16,21,16,13,84,59,34,29.99,29.91,29.76,10,10,10,21,11,24,0.00,1,,245
2012-12-12,60,43,25,21,17,14,68,44,19,29.83,29.76,29.69,10,10,10,23,10,28,0.00,0,,230
2012-12-13,43,33,23,25,22,18,81,65,49,30.10,30.00,29.83,10,10,10,15,6,18,0.00,0,,269
2012-12-14,47,33,19,34,23,16,92,65,37,29.96,29.76,29.54,10,9,4,13,4,15,0.15,3,Rain,165
2012-12-15,38,32,25,34,24,19,92,76,59,29.84,29.69,29.53,10,9,5,20,11,25,0.01,5,,322
2012-12-16,42,32,22,23,21,19,92,69,45,29.83,29.77,29.66,10,10,10,14,6,20,0.00,5,,143
2012-12-17,46,30,13,25,19,11,92,65,37,29.78,29.63,29.45,10,10,9,15,6,17,0.00,1,,208
2012-12-18,44,33,21,30,23,15,92,64,36,29.89,29.68,29.44,10,9,2,21,9,26,0.01,2,Snow,291
2012-12-19,32,23,14,23,18,11,88,68,47,30.16,30.00,29.88,10,7,1,18,9,23,0.02,6,Snow,339
2012-12-20,39,25,10,18,10,4,80,55,29,30.27,30.21,30.09,10,10,9,15,8,18,0.00,0,,278
2012-12-21,57,34,11,25,15,7,84,52,19,30.26,30.15,30.00,10,10,10,15,6,18,0.00,0,,239
2012-12-22,38,27,15,18,14,10,92,65,37,30.15,30.07,29.98,10,9,4,17,9,21,0.00,2,,338
2012-12-23,28,16,4,19,9,0,92,77,62,30.17,30.05,29.90,10,7,2,21,7,24,0.00,4,,174
2012-12-24,14,9,3,5,2,-1,86,75,64,30.42,30.24,30.02,10,9,2,16,8,20,0.01,6,Snow,16
2012-12-25,16,10,3,6,1,-3,88,76,64,30.60,30.47,30.26,10,8,2,12,4,15,0.01,7,Snow,325
2012-12-26,19,11,2,11,6,-1,88,78,67,30.33,30.17,29.92,10,10,6,17,10,22,T,3,Snow,167
2012-12-27,16,13,10,10,8,5,84,76,67,30.11,29.96,29.85,10,4,1,14,6,17,0.05,8,Snow,96
2012-12-28,14,7,0,7,3,-2,88,79,70,30.21,30.11,29.96,10,7,2,13,7,14,T,6,Snow,282
2012-12-29,30,16,1,19,10,-1,88,76,63,30.27,30.23,30.16,10,10,10,15,8,20,0.00,0,,249
2012-12-30,30,16,1,20,12,-2,87,73,58,30.21,30.09,29.92,10,10,10,24,9,30,0.00,2,,293
2012-12-31,24,19,14,20,17,11,92,87,81,30.24,30.19,30.08,10,10,10,12,5,13,0.00,8,,277